Time;durP1;ratioP1;P1;durP2;ratioP2;P2;SDS_P1;SDS_P2;PMS_P1;PMS_P2;Temp;Humidity;BMP_temperature;BMP_pressure;BME280_temperature;BME280_humidity;BME280_pressure;Samples;Min_cycle;Max_cycle;Signal;HPM_P1;HPM_P2
2024/04/07 00:00:22;;;;;;;2.45;1.38;;;;;;;19.74;49.86;101206.56;10169307;29;20508;-82
2024/04/07 00:05:46;;;;;;;3.22;1.27;;;;;;;19.65;49.62;101206.69;10156576;29;20154;-82
2024/04/07 00:11:10;;;;;;;3.35;1.35;;;;;;;19.60;48.82;101209.44;10143596;29;20051;-81
2024/04/07 00:16:32;;;;;;;2.47;1.60;;;;;;;19.59;48.16;101193.41;10143218;29;20064;-81
2024/04/07 00:21:55;;;;;;;2.95;1.30;;;;;;;19.60;47.74;101185.34;10155731;29;20059;-81
2024/04/07 00:27:20;;;;;;;2.85;1.40;;;;;;;19.63;47.21;101185.28;10155262;29;20060;-81
2024/04/07 00:32:43;;;;;;;2.40;1.50;;;;;;;19.64;47.06;101186.16;10142494;29;20056;-81
2024/04/07 00:38:05;;;;;;;1.92;1.30;;;;;;;19.68;46.64;101182.56;10142036;29;20063;-82
2024/04/07 00:43:30;;;;;;;4.45;1.58;;;;;;;19.68;46.93;101182.56;10142014;29;20155;-83
2024/04/07 00:48:52;;;;;;;2.28;1.38;;;;;;;19.63;46.89;101182.59;10155081;29;20536;-81
2024/04/07 00:54:16;;;;;;;1.98;1.17;;;;;;;19.61;47.08;101179.09;10154816;29;20056;-81
2024/04/07 00:59:41;;;;;;;2.35;1.30;;;;;;;19.64;47.12;101180.81;10130899;29;20064;-82
2024/04/07 01:05:07;;;;;;;2.60;1.40;;;;;;;19.65;47.09;101177.22;10136569;29;20044;-82
2024/04/07 01:10:30;;;;;;;2.88;1.25;;;;;;;19.58;47.19;101171.06;10123372;29;20397;-82
2024/04/07 01:15:54;;;;;;;2.80;1.50;;;;;;;19.55;47.11;101165.78;10123307;29;20055;-81
2024/04/07 01:21:19;;;;;;;6.80;1.30;;;;;;;19.57;46.90;101147.88;10122805;29;20059;-81
2024/04/07 01:26:43;;;;;;;2.45;1.30;;;;;;;19.58;47.04;101146.97;10136385;29;20494;-81
2024/04/07 01:32:09;;;;;;;3.45;1.95;;;;;;;19.53;46.89;101130.09;10122738;29;20116;-82
2024/04/07 01:37:33;;;;;;;2.75;1.30;;;;;;;19.50;46.81;101132.81;10148934;29;20060;-81
2024/04/07 01:43:01;;;;;;;1.98;1.20;;;;;;;19.51;46.54;101118.50;10135357;29;20118;-81
2024/04/07 01:48:24;;;;;;;3.17;1.63;;;;;;;19.49;46.63;101117.66;10097590;29;20080;-81
2024/04/07 01:53:55;;;;;;;2.80;1.30;;;;;;;19.48;46.46;101113.22;10147565;29;20086;-81
2024/04/07 01:59:19;;;;;;;3.35;1.33;;;;;;;19.45;46.45;101121.25;10150132;29;20112;-81
2024/04/07 02:04:42;;;;;;;2.50;1.45;;;;;;;19.45;46.35;101111.44;10146900;29;20066;-81
2024/04/07 02:10:06;;;;;;;3.17;1.20;;;;;;;19.47;46.48;101114.13;10133170;29;20084;-81
2024/04/07 02:15:31;;;;;;;3.60;1.60;;;;;;;19.45;46.43;101108.75;10120864;29;20071;-81
2024/04/07 02:20:54;;;;;;;3.38;1.27;;;;;;;19.44;46.41;101095.38;10120103;29;20100;-81
2024/04/07 02:26:16;;;;;;;2.67;1.33;;;;;;;19.46;46.06;101099.84;10120716;29;20131;-81
2024/04/07 02:31:41;;;;;;;2.72;1.35;;;;;;;19.48;45.71;101098.03;10146766;29;20490;-82
2024/04/07 02:37:03;;;;;;;2.22;1.20;;;;;;;19.46;46.30;101091.81;10146718;29;20113;-81
2024/04/07 02:42:26;;;;;;;2.38;1.17;;;;;;;19.43;46.74;101093.59;10119918;29;20056;-80
2024/04/07 02:48:06;;;;;;;2.05;1.30;;;;;;;19.40;46.74;101081.16;10133708;29;20134;-81
2024/04/07 02:53:29;;;;;;;2.88;1.30;;;;;;;19.34;47.19;101083.06;10184817;29;20064;-81
2024/04/07 02:58:51;;;;;;;2.13;1.17;;;;;;;19.35;47.51;101084.81;10184618;29;20055;-81
2024/04/07 03:04:16;;;;;;;4.85;1.27;;;;;;;19.36;47.12;101071.38;10170860;29;20067;-81
2024/04/07 03:09:41;;;;;;;2.58;1.33;;;;;;;19.37;47.05;101069.59;10158327;29;20516;-80
2024/04/07 03:15:07;;;;;;;4.93;1.38;;;;;;;19.42;46.51;101070.44;10159097;29;20517;-82
2024/04/07 03:20:33;;;;;;;2.87;1.10;;;;;;;19.45;46.46;101060.53;10118902;29;20067;-82
2024/04/07 03:25:59;;;;;;;3.53;1.20;;;;;;;19.45;46.40;101067.69;10118667;29;20528;-83
2024/04/07 03:31:21;;;;;;;1.77;1.20;;;;;;;19.42;46.26;101068.66;10131396;29;20057;-82
2024/04/07 03:36:45;;;;;;;1.60;1.10;;;;;;;19.41;46.00;101060.63;10131606;29;20100;-82
2024/04/07 03:42:09;;;;;;;2.40;1.48;;;;;;;19.36;45.65;101066.03;10144323;29;20053;-82
2024/04/07 03:47:32;;;;;;;3.22;1.10;;;;;;;19.34;45.75;101075.03;10118289;29;20552;-82
2024/04/07 03:52:57;;;;;;;2.92;1.40;;;;;;;19.38;44.91;101068.69;10179470;29;20076;-82
2024/04/07 03:58:20;;;;;;;4.05;1.38;;;;;;;19.36;44.63;101079.41;10181984;29;20060;-82
2024/04/07 04:03:42;;;;;;;2.08;1.27;;;;;;;19.25;45.25;101080.50;10182352;29;20078;-82
2024/04/07 04:09:09;;;;;;;3.38;1.40;;;;;;;19.18;45.52;101090.41;10169653;29;20151;-81
2024/04/07 04:14:32;;;;;;;2.03;1.23;;;;;;;19.25;46.15;101077.81;10174169;29;20128;-82
2024/04/07 04:19:54;;;;;;;2.60;1.20;;;;;;;19.38;46.10;101076.72;10117043;29;20060;-82
2024/04/07 04:25:18;;;;;;;4.30;1.70;;;;;;;19.50;45.83;101081.91;10142557;29;20068;-82
2024/04/07 04:30:41;;;;;;;3.15;1.35;;;;;;;19.74;45.97;101070.81;10143456;29;20387;-83
2024/04/07 04:36:03;;;;;;;3.22;1.50;;;;;;;19.88;45.43;101067.91;10129102;29;20049;-82
2024/04/07 04:41:28;;;;;;;2.58;1.20;;;;;;;19.92;45.61;101068.72;10129177;29;20061;-81
2024/04/07 04:46:51;;;;;;;3.60;1.13;;;;;;;20.01;45.32;101074.81;10129365;29;20056;-82
2024/04/07 04:52:13;;;;;;;3.38;1.27;;;;;;;20.19;45.60;101074.47;10146741;29;20071;-82
2024/04/07 04:57:39;;;;;;;1.98;1.10;;;;;;;20.48;45.84;101073.06;10175862;29;20112;-82
2024/04/07 05:03:02;;;;;;;4.25;1.13;;;;;;;20.84;45.14;101068.72;10180248;29;20220;-82
2024/04/07 05:08:25;;;;;;;2.75;1.42;;;;;;;21.21;44.41;101061.63;10181151;29;20048;-83
2024/04/07 05:13:49;;;;;;;3.05;1.00;;;;;;;21.48;42.69;101060.09;10177867;29;20060;-83
2024/04/07 05:19:11;;;;;;;5.45;1.55;;;;;;;21.80;42.98;101053.91;10141434;29;20142;-83
2024/04/07 05:24:36;;;;;;;3.65;1.73;;;;;;;22.35;42.91;101061.41;10166627;29;20056;-84
2024/04/07 05:30:00;;;;;;;1.45;1.08;;;;;;;23.09;41.50;101054.75;10167690;29;20083;-84
2024/04/07 05:35:24;;;;;;;2.88;1.20;;;;;;;23.73;40.34;101054.47;10154294;29;20169;-84
2024/04/07 05:40:54;;;;;;;1.95;1.20;;;;;;;24.30;38.19;101050.66;10141835;29;20068;-84
2024/04/07 05:46:21;;;;;;;1.48;1.15;;;;;;;24.69;36.43;101042.00;10170539;29;20087;-85
2024/04/07 05:51:43;;;;;;;19.52;13.45;;;;;;;24.89;34.97;101048.44;10188010;29;20127;-84
2024/04/07 05:57:06;;;;;;;6.03;3.80;;;;;;;25.17;34.27;101040.13;10199226;29;20135;-85
2024/04/07 06:02:36;;;;;;;2.90;1.15;;;;;;;25.51;33.77;101046.88;10186737;29;20157;-85
2024/04/07 06:08:02;;;;;;;1.67;1.30;;;;;;;25.91;33.03;101046.09;10186828;29;20059;-86
2024/04/07 06:13:27;;;;;;;2.42;1.38;;;;;;;26.36;32.15;101051.34;10199714;29;20133;-85
2024/04/07 06:18:55;;;;;;;2.00;1.23;;;;;;;26.94;31.57;101045.00;10120732;29;20056;-86
2024/04/07 06:24:17;;;;;;;3.70;2.72;;;;;;;27.43;31.37;101045.34;10133597;29;20060;-85
2024/04/07 06:29:41;;;;;;;2.38;1.60;;;;;;;27.75;29.96;101051.88;10134393;29;20053;-86
2024/04/07 06:35:06;;;;;;;4.22;0.82;;;;;;;27.96;28.49;101044.47;10121149;29;20052;-84
2024/04/07 06:40:33;;;;;;;3.50;1.05;;;;;;;28.06;28.40;101046.63;10132937;29;20497;-86
2024/04/07 06:45:58;;;;;;;2.28;1.20;;;;;;;28.29;28.25;101053.56;10120202;29;20265;-86
2024/04/07 06:51:23;;;;;;;2.70;0.93;;;;;;;28.58;27.53;101040.28;10145949;29;20462;-86
2024/04/07 06:56:48;;;;;;;5.85;3.17;;;;;;;28.93;27.67;101047.41;10144662;29;20052;-85
2024/04/07 07:02:12;;;;;;;2.23;1.67;;;;;;;29.33;27.44;101048.72;10158951;29;20086;-86
2024/04/07 07:07:36;;;;;;;5.57;1.95;;;;;;;29.59;26.65;101050.84;10158771;29;20298;-85
2024/04/07 07:12:59;;;;;;;5.18;3.90;;;;;;;29.74;26.65;101051.75;10158776;29;20052;-86
2024/04/07 07:18:22;;;;;;;8.48;6.53;;;;;;;30.19;26.29;101058.19;10145418;29;20060;-86
2024/04/07 07:23:48;;;;;;;3.97;2.30;;;;;;;30.26;25.63;101038.59;10170544;29;20071;-85
2024/04/07 07:29:13;;;;;;;3.53;1.90;;;;;;;30.55;25.20;101038.69;10158011;29;20095;-87
2024/04/07 07:34:35;;;;;;;4.15;1.65;;;;;;;30.69;24.57;101038.69;10170885;29;20068;-86
2024/04/07 07:40:00;;;;;;;1.67;0.80;;;;;;;30.68;24.14;101036.94;10157641;29;20052;-86
2024/04/07 07:45:23;;;;;;;4.20;1.35;;;;;;;30.75;23.97;101028.25;10144940;29;20051;-85
2024/04/07 07:50:48;;;;;;;1.83;1.20;;;;;;;31.05;23.84;101027.31;10143541;29;20063;-85
2024/04/07 07:56:13;;;;;;;4.00;1.47;;;;;;;31.30;23.47;101032.88;10169445;29;20147;-85
2024/04/07 08:01:37;;;;;;;3.25;1.90;;;;;;;31.51;23.59;101025.09;10157047;29;20088;-87
2024/04/07 08:07:00;;;;;;;3.50;1.85;;;;;;;31.71;22.63;101026.50;10169773;29;20055;-86
2024/04/07 08:12:23;;;;;;;3.30;1.95;;;;;;;31.71;22.78;101007.38;10168853;29;20064;-85
2024/04/07 08:17:46;;;;;;;2.40;1.50;;;;;;;31.70;22.72;101003.81;10142877;29;20055;-86
2024/04/07 08:23:08;;;;;;;4.03;1.90;;;;;;;32.06;23.24;100995.78;10142981;29;20064;-87
2024/04/07 08:28:32;;;;;;;3.10;2.00;;;;;;;32.36;23.42;101002.84;10169800;29;20052;-86
2024/04/07 08:33:55;;;;;;;3.50;2.05;;;;;;;32.52;22.88;100992.53;10155903;29;20060;-87
2024/04/07 08:39:17;;;;;;;3.05;2.20;;;;;;;32.70;22.69;100993.06;10155703;29;20052;-88
2024/04/07 08:44:42;;;;;;;3.65;2.30;;;;;;;32.85;23.09;100991.97;10168421;29;20138;-87
2024/04/07 08:50:05;;;;;;;2.65;1.15;;;;;;;33.31;22.53;100988.56;10155706;29;20505;-87
2024/04/07 08:55:28;;;;;;;3.80;2.10;;;;;;;33.49;22.39;100979.81;10129569;29;20044;-87
2024/04/07 09:00:54;;;;;;;4.50;3.08;;;;;;;33.63;22.48;100982.34;10142043;29;20052;-90
2024/04/07 09:06:17;;;;;;;;;;;;;;;33.70;22.79;100970.94;10155042;29;20091;-92
2024/04/07 09:11:40;;;;;;;2.90;1.40;;;;;;;33.96;23.07;100969.78;10143216;29;19934;-90
2024/04/07 09:17:07;;;;;;;4.28;1.83;;;;;;;33.75;23.11;100958.63;10155794;29;20096;-88
2024/04/07 09:22:31;;;;;;;3.75;1.70;;;;;;;33.95;23.06;100963.44;10146186;29;20468;-89
2024/04/07 09:27:53;;;;;;;3.90;1.88;;;;;;;34.18;23.26;100958.00;10148480;29;20056;-87
2024/04/07 09:33:17;;;;;;;4.13;1.63;;;;;;;34.26;22.70;100963.78;10144006;29;20079;-91
2024/04/07 09:38:40;;;;;;;5.03;2.28;;;;;;;34.28;22.83;100956.28;10175594;29;20055;-86
2024/04/07 09:44:06;;;;;;;5.15;2.90;;;;;;;34.44;22.86;100967.78;10148434;29;20056;-88
2024/04/07 09:49:35;;;;;;;4.97;1.20;;;;;;;34.44;22.69;100956.81;10159636;29;20155;-87
2024/04/07 09:55:07;;;;;;;5.07;2.03;;;;;;;34.76;22.67;100963.31;10160404;29;20059;-87
2024/04/07 10:00:32;;;;;;;63.95;57.22;;;;;;;34.75;22.24;100956.06;10147018;29;20056;-88
2024/04/07 10:06:18;;;;;;;28.20;19.63;;;;;;;34.83;22.08;100938.09;10159121;29;20051;-87
2024/04/07 10:11:48;;;;;;;;;;;;;;;34.48;22.22;100924.50;10173810;29;20060;-87
2024/04/07 10:17:13;;;;;;;37.55;25.15;;;;;;;34.17;23.05;100934.31;10159948;29;20357;-88
2024/04/07 10:22:38;;;;;;;24.33;20.98;;;;;;;34.10;22.98;100924.84;10146119;29;20056;-87
2024/04/07 10:28:02;;;;;;;10.00;8.90;;;;;;;33.96;22.60;100926.81;10159847;29;20703;-87
2024/04/07 10:33:30;;;;;;;62.05;48.95;;;;;;;33.65;23.26;100923.84;10175474;29;20052;-85
2024/04/07 10:38:57;;;;;;;21.52;17.10;;;;;;;33.43;23.20;100910.94;10211506;29;20052;-83
2024/04/07 10:44:20;;;;;;;9.43;8.52;;;;;;;32.98;23.27;100902.50;10161443;29;20068;-86
2024/04/07 10:49:44;;;;;;;11.23;8.57;;;;;;;32.26;24.26;100908.78;10142607;29;20814;-86
2024/04/07 10:55:10;;;;;;;6.55;5.47;;;;;;;32.24;25.25;100900.69;10158813;29;20501;-86
2024/04/07 11:00:39;;;;;;;8.18;6.22;;;;;;;32.70;25.10;100900.09;10169922;29;20405;-85
2024/04/07 11:06:02;;;;;;;5.20;3.60;;;;;;;32.35;24.44;100899.94;10157157;29;20060;-86
2024/04/07 11:11:26;;;;;;;3.60;1.85;;;;;;;31.52;25.97;100896.69;10157750;29;20552;-85
2024/04/07 11:16:53;;;;;;;6.53;3.72;;;;;;;31.15;27.15;100886.56;10158260;29;20064;-85
2024/04/07 11:22:15;;;;;;;3.67;2.45;;;;;;;31.47;27.07;100882.50;10170773;29;20230;-86
2024/04/07 11:27:39;;;;;;;5.97;2.47;;;;;;;31.43;26.97;100878.22;10158035;29;20059;-85
2024/04/07 11:33:05;;;;;;;7.10;3.17;;;;;;;30.96;28.44;100876.00;10157856;29;20099;-85
2024/04/07 11:38:29;;;;;;;23.23;20.08;;;;;;;30.49;29.54;100871.84;10144618;29;20084;-86
2024/04/07 11:43:53;;;;;;;12.73;9.07;;;;;;;30.78;30.14;100861.75;10144353;29;20056;-85
2024/04/07 11:49:16;;;;;;;6.07;2.55;;;;;;;30.75;30.41;100855.59;10138664;29;20051;-85
2024/04/07 11:54:38;;;;;;;3.88;1.77;;;;;;;30.52;30.54;100846.25;10143462;29;20064;-85
2024/04/07 12:00:04;;;;;;;3.70;1.80;;;;;;;30.32;31.08;100836.63;10169771;29;20060;-85
2024/04/07 12:05:34;;;;;;;3.75;1.58;;;;;;;30.36;31.41;100837.28;10156679;29;20060;-85
2024/04/07 12:10:56;;;;;;;8.60;5.72;;;;;;;30.27;31.58;100836.03;10156741;29;20060;-84
2024/04/07 12:16:22;;;;;;;6.63;2.92;;;;;;;30.03;32.63;100838.50;10168912;29;20116;-86
2024/04/07 12:21:48;;;;;;;4.27;2.00;;;;;;;29.87;33.10;100829.50;10156148;29;20048;-84
2024/04/07 12:27:11;;;;;;;5.95;1.70;;;;;;;29.68;33.70;100823.47;10142509;29;20131;-85
2024/04/07 12:32:35;;;;;;;5.68;1.95;;;;;;;29.49;34.31;100820.16;10143127;29;20058;-86
2024/04/07 12:37:58;;;;;;;7.85;2.42;;;;;;;29.28;34.78;100814.16;10169226;29;20060;-84
2024/04/07 12:43:20;;;;;;;3.67;1.70;;;;;;;29.18;35.84;100818.41;10142615;29;20088;-84
2024/04/07 12:48:45;;;;;;;9.30;2.58;;;;;;;29.01;36.94;100819.44;10127757;29;20079;-84
2024/04/07 12:54:07;;;;;;;6.05;1.90;;;;;;;28.93;37.73;100824.47;10122776;29;20747;-84
2024/04/07 12:59:30;;;;;;;7.63;2.45;;;;;;;28.55;40.00;100832.13;10173478;29;20056;-83
2024/04/07 13:04:54;;;;;;;9.90;2.78;;;;;;;28.31;41.40;100818.09;10174492;29;20059;-84
2024/04/07 13:10:17;;;;;;;8.35;2.83;;;;;;;28.37;42.36;100815.00;10160893;29;20170;-84
2024/04/07 13:15:40;;;;;;;6.35;2.78;;;;;;;28.38;42.83;100805.91;10148668;29;20067;-85
2024/04/07 13:21:05;;;;;;;9.15;2.63;;;;;;;28.01;43.63;100796.25;10195666;29;20119;-84
2024/04/07 13:26:27;;;;;;;12.85;2.35;;;;;;;28.05;43.96;100796.94;10199711;29;20107;-85
2024/04/07 13:31:49;;;;;;;7.40;2.40;;;;;;;27.97;44.75;100793.75;10200937;29;20052;-82
2024/04/07 13:37:13;;;;;;;10.85;3.35;;;;;;;27.98;44.96;100779.22;10186674;29;20055;-85
2024/04/07 13:42:36;;;;;;;6.93;2.35;;;;;;;27.76;44.99;100776.84;10152659;29;20524;-85
2024/04/07 13:47:59;;;;;;;5.50;1.92;;;;;;;27.62;45.63;100774.03;10146906;29;20064;-85
2024/04/07 13:53:23;;;;;;;8.20;2.30;;;;;;;27.86;46.29;100774.50;10150629;29;20052;-83
2024/04/07 13:58:45;;;;;;;8.95;2.30;;;;;;;27.87;46.09;100778.97;10136794;29;20133;-82
2024/04/07 14:04:08;;;;;;;9.02;2.58;;;;;;;27.81;46.32;100776.59;10136588;29;20148;-84
2024/04/07 14:09:32;;;;;;;12.27;2.65;;;;;;;27.88;46.41;100783.44;10124250;29;20154;-84
2024/04/07 14:14:54;;;;;;;9.57;2.35;;;;;;;27.76;48.00;100766.84;10147089;29;20198;-83
2024/04/07 14:20:18;;;;;;;11.95;2.40;;;;;;;27.66;48.35;100771.06;10162459;29;20060;-82
2024/04/07 14:25:42;;;;;;;12.60;2.72;;;;;;;27.59;48.34;100764.22;10174928;29;20075;-84
2024/04/07 14:31:04;;;;;;;7.75;2.38;;;;;;;27.38;48.16;100762.63;10174730;29;20056;-83
2024/04/07 14:36:27;;;;;;;12.48;2.88;;;;;;;27.11;48.42;100770.38;10174843;29;20083;-84
2024/04/07 14:41:51;;;;;;;10.00;2.70;;;;;;;26.93;49.38;100769.53;10174676;29;20052;-84
2024/04/07 14:47:14;;;;;;;8.50;2.25;;;;;;;26.90;50.64;100772.41;10150708;29;20120;-82
2024/04/07 14:52:37;;;;;;;9.63;2.78;;;;;;;26.82;52.69;100752.03;10135247;29;20527;-85
2024/04/07 14:58:02;;;;;;;8.88;2.72;;;;;;;26.72;54.17;100762.47;10204534;29;20048;-86
2024/04/07 15:03:25;;;;;;;12.77;3.00;;;;;;;26.29;57.30;100757.47;10213824;29;20409;-86
2024/04/07 15:08:47;;;;;;;14.38;3.03;;;;;;;25.86;61.53;100770.34;10187725;29;20378;-82
2024/04/07 15:14:11;;;;;;;10.85;2.50;;;;;;;25.61;65.25;100769.72;10183434;29;20067;-87
2024/04/07 15:19:34;;;;;;;8.57;3.40;;;;;;;25.50;67.69;100766.59;10198482;29;20107;-83
2024/04/07 15:24:57;;;;;;;8.05;2.35;;;;;;;25.38;68.00;100763.53;10185233;29;20055;-86
2024/04/07 15:30:21;;;;;;;9.30;2.40;;;;;;;25.30;69.05;100770.22;10186028;29;20087;-85
2024/04/07 15:35:44;;;;;;;8.90;2.63;;;;;;;25.08;71.41;100762.19;10199422;29;20569;-86
2024/04/07 15:41:07;;;;;;;6.50;2.97;;;;;;;24.84;74.48;100745.19;10198045;29;20060;-87
2024/04/07 15:46:31;;;;;;;6.22;2.50;;;;;;;24.72;75.60;100752.97;10166841;29;20067;-83
2024/04/07 15:51:56;;;;;;;13.18;2.75;;;;;;;24.60;76.38;100762.47;10161395;29;20047;-82
2024/04/07 15:57:19;;;;;;;8.02;2.97;;;;;;;24.40;80.43;100755.19;10159780;29;20124;-82
2024/04/07 16:02:44;;;;;;;9.75;3.05;;;;;;;24.12;83.03;100746.44;10171696;29;20132;-80
2024/04/07 16:08:08;;;;;;;6.97;3.25;;;;;;;23.91;85.26;100740.06;10175059;29;20059;-82
2024/04/07 16:13:31;;;;;;;7.65;3.03;;;;;;;23.79;86.37;100746.84;10184330;29;20051;-81
2024/04/07 16:18:57;;;;;;;6.65;2.75;;;;;;;23.55;87.20;100749.63;10119152;29;20059;-82
2024/04/07 16:24:20;;;;;;;11.90;2.92;;;;;;;23.39;88.36;100751.97;10143454;29;20064;-82
2024/04/07 16:29:42;;;;;;;8.73;4.10;;;;;;;23.19;90.78;100749.13;10157521;29;20080;-82
2024/04/07 16:35:08;;;;;;;14.07;6.95;;;;;;;22.96;95.85;100750.84;10171221;29;20055;-82
2024/04/07 16:40:31;;;;;;;7.20;3.10;;;;;;;22.86;96.46;100745.81;10157801;29;20524;-82
2024/04/07 16:45:53;;;;;;;9.15;3.38;;;;;;;22.72;97.03;100745.38;10167370;29;20056;-83
2024/04/07 16:51:17;;;;;;;6.75;4.28;;;;;;;22.60;97.04;100750.25;10209702;29;20054;-83
2024/04/07 16:56:41;;;;;;;5.93;3.33;;;;;;;22.49;94.65;100746.19;10180249;29;20052;-81
2024/04/07 17:02:05;;;;;;;7.82;4.53;;;;;;;22.31;93.04;100742.31;10157764;29;20052;-83
2024/04/07 17:07:30;;;;;;;6.13;3.95;;;;;;;22.13;92.96;100741.06;10155884;29;20051;-82
2024/04/07 17:12:54;;;;;;;8.45;3.00;;;;;;;22.06;92.80;100752.06;10157071;29;20084;-80
2024/04/07 17:18:16;;;;;;;3.75;2.30;;;;;;;22.02;91.45;100766.56;10196264;29;20134;-83
2024/04/07 17:23:41;;;;;;;5.78;2.20;;;;;;;21.91;88.24;100752.53;10194772;29;20076;-84
2024/04/07 17:29:04;;;;;;;4.15;2.25;;;;;;;21.80;84.17;100767.16;10181756;29;20047;-84
2024/04/07 17:34:27;;;;;;;4.00;2.40;;;;;;;21.74;82.46;100766.47;10182326;29;20400;-81
2024/04/07 17:39:52;;;;;;;6.35;2.70;;;;;;;21.74;85.43;100766.47;10178422;29;20139;-80
2024/04/07 17:45:19;;;;;;;7.00;2.30;;;;;;;21.77;90.74;100780.72;10180462;29;20056;-80
2024/04/07 17:50:44;;;;;;;6.47;2.93;;;;;;;21.82;94.06;100785.94;10162521;29;20056;-80
2024/04/07 17:56:08;;;;;;;12.07;3.70;;;;;;;21.74;98.87;100793.34;10136858;29;20048;-83
2024/04/07 18:01:31;;;;;;;9.18;3.42;;;;;;;21.79;99.05;100784.22;10136722;29;20056;-83
2024/04/07 18:06:54;;;;;;;12.68;3.88;;;;;;;21.66;100.00;100782.81;10160993;29;20060;-80
2024/04/07 18:12:23;;;;;;;12.35;3.63;;;;;;;21.58;100.00;100746.38;10149637;29;20143;-83
2024/04/07 18:17:47;;;;;;;13.90;4.40;;;;;;;21.46;100.00;100756.53;10195171;29;20106;-83
2024/04/07 18:23:11;;;;;;;9.50;4.30;;;;;;;21.35;100.00;100780.16;10213817;29;20099;-81
2024/04/07 18:28:35;;;;;;;17.15;4.82;;;;;;;21.26;100.00;100780.44;10187243;29;20056;-81
2024/04/07 18:33:57;;;;;;;12.82;4.20;;;;;;;21.25;100.00;100785.84;10200870;29;20551;-80
2024/04/07 18:39:20;;;;;;;9.27;4.43;;;;;;;21.31;100.00;100788.34;10187177;29;20055;-81
2024/04/07 18:44:44;;;;;;;13.45;4.28;;;;;;;21.37;100.00;100786.38;10212831;29;20564;-81
2024/04/07 18:50:07;;;;;;;12.00;4.55;;;;;;;21.24;100.00;100789.44;10199856;29;20068;-82
2024/04/07 18:55:33;;;;;;;6.85;3.08;;;;;;;21.20;100.00;100772.53;10211769;29;20401;-81
2024/04/07 19:00:57;;;;;;;10.07;3.78;;;;;;;21.15;100.00;100781.59;10186185;29;20059;-80
2024/04/07 19:06:19;;;;;;;11.45;3.97;;;;;;;20.99;100.00;100782.03;10199772;29;20051;-80
2024/04/07 19:11:42;;;;;;;9.60;4.25;;;;;;;20.85;100.00;100794.94;10160172;29;20064;-82
2024/04/07 19:17:06;;;;;;;9.63;4.22;;;;;;;20.76;100.00;100788.91;10158567;29;20051;-82
2024/04/07 19:22:31;;;;;;;11.73;4.90;;;;;;;20.70;100.00;100792.63;10152626;29;20060;-82
2024/04/07 19:27:53;;;;;;;9.38;4.03;;;;;;;20.69;100.00;100801.59;10162496;29;20064;-80
2024/04/07 19:33:17;;;;;;;11.82;4.65;;;;;;;20.65;100.00;100808.84;10134829;29;20067;-82
2024/04/07 19:38:40;;;;;;;13.20;4.88;;;;;;;20.68;100.00;100808.78;10156879;29;20529;-82
2024/04/07 19:44:02;;;;;;;15.80;5.15;;;;;;;20.74;100.00;100796.13;10143777;29;20108;-82
2024/04/07 19:49:26;;;;;;;12.35;5.07;;;;;;;20.69;100.00;100801.59;10138698;29;20608;-83
2024/04/07 19:54:49;;;;;;;13.57;4.95;;;;;;;20.59;100.00;100814.38;10154592;29;20058;-81
2024/04/07 20:00:13;;;;;;;10.73;4.88;;;;;;;20.55;100.00;100791.22;10155427;29;20063;-82
2024/04/07 20:05:41;;;;;;;13.57;4.60;;;;;;;20.48;100.00;100784.25;10167801;29;20052;-81
2024/04/07 20:11:06;;;;;;;;;;;;;;;20.50;100.00;100797.63;10156333;29;20074;-84
2024/04/07 20:16:28;;;;;;;14.18;5.30;;;;;;;20.49;100.00;100795.84;10155388;29;20178;-81
2024/04/07 20:21:52;;;;;;;10.43;5.03;;;;;;;20.62;100.00;100798.19;10142557;29;20509;-84
2024/04/07 20:27:16;;;;;;;11.90;5.55;;;;;;;20.71;100.00;100802.47;10154871;29;20068;-83
2024/04/07 20:32:40;;;;;;;8.00;5.28;;;;;;;20.79;100.00;100788.84;10157739;29;20067;-81
2024/04/07 20:38:05;;;;;;;13.25;5.40;;;;;;;20.85;100.00;100775.25;10118804;29;20100;-83
2024/04/07 20:43:28;;;;;;;12.95;5.65;;;;;;;20.87;100.00;100760.88;10136713;29;20078;-83
2024/04/07 20:48:50;;;;;;;13.65;5.97;;;;;;;20.87;100.00;100781.50;10125680;29;20057;-82
2024/04/07 20:54:16;;;;;;;12.15;5.50;;;;;;;20.85;100.00;100784.19;10103624;29;20052;-83
2024/04/07 20:59:39;;;;;;;12.93;6.03;;;;;;;20.68;100.00;100797.16;10103184;29;20451;-83
2024/04/07 21:05:03;;;;;;;14.02;5.45;;;;;;;20.59;100.00;100809.03;10129225;29;20501;-81
2024/04/07 21:10:27;;;;;;;9.20;4.63;;;;;;;20.53;100.00;100805.59;10116283;29;20128;-80
2024/04/07 21:15:50;;;;;;;9.07;4.35;;;;;;;20.47;100.00;100792.34;10135772;29;20358;-83
2024/04/07 21:21:12;;;;;;;5.88;3.50;;;;;;;20.46;100.00;100761.06;10162269;29;20068;-81
2024/04/07 21:26:36;;;;;;;6.82;4.03;;;;;;;20.44;100.00;100745.00;10175091;29;20052;-82
2024/04/07 21:32:00;;;;;;;7.85;3.75;;;;;;;20.38;97.71;100721.03;10175432;29;20056;-82
2024/04/07 21:37:22;;;;;;;9.18;4.40;;;;;;;20.28;99.20;100701.56;10161504;29;20056;-81
2024/04/07 21:42:46;;;;;;;7.57;4.07;;;;;;;20.23;98.84;100683.84;10148739;29;20497;-82
2024/04/07 21:48:09;;;;;;;10.45;3.97;;;;;;;20.15;100.00;100662.59;10122395;29;20060;-81
2024/04/07 21:53:31;;;;;;;8.50;4.18;;;;;;;20.08;100.00;100644.03;10134724;29;20128;-80
2024/04/07 21:58:55;;;;;;;13.52;3.70;;;;;;;20.08;100.00;100660.13;10121478;29;20064;-83
2024/04/07 22:04:18;;;;;;;7.35;3.58;;;;;;;20.05;100.00;100646.78;10109471;29;20450;-83
2024/04/07 22:09:40;;;;;;;10.65;3.83;;;;;;;20.07;100.00;100642.28;10136003;29;20049;-82
2024/04/07 22:15:06;;;;;;;8.77;3.72;;;;;;;20.06;100.00;100619.94;10121506;29;20048;-81
2024/04/07 22:20:28;;;;;;;12.40;3.95;;;;;;;19.96;96.09;100644.31;10160068;29;20048;-82
2024/04/07 22:25:51;;;;;;;9.60;4.82;;;;;;;19.89;98.46;100649.84;10159999;29;20143;-81
2024/04/07 22:31:16;;;;;;;9.20;4.90;;;;;;;19.85;96.24;100631.19;10145963;29;20493;-81
2024/04/07 22:36:42;;;;;;;9.65;4.90;;;;;;;19.83;94.54;100627.66;10160266;29;20112;-81
2024/04/07 22:42:06;;;;;;;11.20;5.43;;;;;;;19.77;95.06;100628.69;10172850;29;20060;-83
2024/04/07 22:47:31;;;;;;;8.80;4.45;;;;;;;19.67;93.32;100635.22;10172140;29;20063;-82
2024/04/07 22:52:53;;;;;;;9.93;5.07;;;;;;;19.61;90.28;100648.75;10172636;29;20044;-81
2024/04/07 22:58:16;;;;;;;10.93;4.30;;;;;;;19.55;87.82;100675.69;10158339;29;20055;-83
2024/04/07 23:03:40;;;;;;;8.25;4.22;;;;;;;19.62;92.32;100663.91;10145596;29;20048;-83
2024/04/07 23:09:05;;;;;;;13.55;4.07;;;;;;;19.67;93.85;100680.75;10171240;29;20060;-82
2024/04/07 23:14:28;;;;;;;7.45;3.88;;;;;;;19.63;91.82;100694.22;10158383;29;20149;-83
2024/04/07 23:19:54;;;;;;;9.63;4.10;;;;;;;19.61;89.37;100690.72;10132864;29;20056;-81
2024/04/07 23:25:17;;;;;;;11.80;3.95;;;;;;;19.49;85.95;100684.69;10157867;29;20056;-83
2024/04/07 23:30:40;;;;;;;8.07;3.60;;;;;;;19.49;86.39;100670.47;10144760;29;20055;-82
2024/04/07 23:36:07;;;;;;;11.40;4.65;;;;;;;19.56;90.13;100658.66;10145335;29;20052;-83
2024/04/07 23:41:29;;;;;;;14.48;4.13;;;;;;;19.59;91.23;100666.66;10144366;29;20079;-82
2024/04/07 23:46:52;;;;;;;7.90;3.78;;;;;;;19.52;88.97;100648.06;10144511;29;20091;-82
2024/04/07 23:52:16;;;;;;;11.35;3.90;;;;;;;19.49;88.88;100647.22;10117746;29;20052;-83
2024/04/07 23:57:41;;;;;;;10.75;3.75;;;;;;;19.50;90.04;100656.13;10104257;29;20455;-83
